sensor_id;sensor_type;location;lat;lon;timestamp;P1;durP1;ratioP1;P2;durP2;ratioP2
52618;SDS011;38513;53.234;6.568;2024-02-15T11:53:11;13.07;;;9.35;;
52618;SDS011;38513;53.234;6.568;2024-02-15T11:55:53;11.65;;;8.65;;
52618;SDS011;38513;53.234;6.568;2024-02-15T12:08:46;10.10;;;8.35;;
52618;SDS011;38513;53.234;6.568;2024-02-15T12:14:59;9.90;;;7.60;;
52618;SDS011;38513;53.234;6.568;2024-02-15T12:17:52;9.65;;;7.95;;
52618;SDS011;38513;53.234;6.568;2024-02-15T12:23:44;9.93;;;7.55;;
52618;SDS011;38513;53.234;6.568;2024-02-15T12:26:22;10.20;;;7.20;;
52618;SDS011;38513;53.234;6.568;2024-02-15T12:29:18;10.38;;;7.38;;
52618;SDS011;38513;53.234;6.568;2024-02-15T12:31:45;10.15;;;8.57;;
52618;SDS011;38513;53.234;6.568;2024-02-15T12:34:14;10.23;;;7.65;;
52618;SDS011;38513;53.234;6.568;2024-02-15T12:36:44;9.98;;;7.68;;
52618;SDS011;38513;53.234;6.568;2024-02-15T12:39:20;10.90;;;7.95;;
52618;SDS011;38513;53.234;6.568;2024-02-15T12:41:52;10.98;;;8.40;;
52618;SDS011;38513;53.234;6.568;2024-02-15T12:44:49;12.13;;;8.82;;
52618;SDS011;38513;53.234;6.568;2024-02-15T12:47:40;11.98;;;9.20;;
52618;SDS011;38513;53.234;6.568;2024-02-15T12:50:29;13.07;;;9.27;;
52618;SDS011;38513;53.234;6.568;2024-02-15T12:53:08;13.73;;;10.18;;
52618;SDS011;38513;53.234;6.568;2024-02-15T12:55:57;13.88;;;10.80;;
52618;SDS011;38513;53.234;6.568;2024-02-15T12:58:40;16.58;;;12.10;;
52618;SDS011;38513;53.234;6.568;2024-02-15T13:01:11;18.25;;;12.68;;
52618;SDS011;38513;53.234;6.568;2024-02-15T13:03:50;18.20;;;13.15;;
52618;SDS011;38513;53.234;6.568;2024-02-15T13:06:16;17.57;;;13.67;;
52618;SDS011;38513;53.234;6.568;2024-02-15T13:08:59;20.42;;;15.07;;
52618;SDS011;38513;53.234;6.568;2024-02-15T13:11:46;20.43;;;14.47;;
52618;SDS011;38513;53.234;6.568;2024-02-15T13:18:03;22.90;;;16.00;;
52618;SDS011;38513;53.234;6.568;2024-02-15T13:21:10;23.33;;;16.20;;
52618;SDS011;38513;53.234;6.568;2024-02-15T13:23:48;20.90;;;15.35;;
52618;SDS011;38513;53.234;6.568;2024-02-15T13:29:29;20.80;;;16.93;;
52618;SDS011;38513;53.234;6.568;2024-02-15T13:32:18;24.25;;;17.70;;
52618;SDS011;38513;53.234;6.568;2024-02-15T13:34:54;26.88;;;18.75;;
52618;SDS011;38513;53.234;6.568;2024-02-15T13:40:48;26.63;;;18.75;;
52618;SDS011;38513;53.234;6.568;2024-02-15T13:43:33;26.45;;;19.38;;
52618;SDS011;38513;53.234;6.568;2024-02-15T13:52:48;23.10;;;17.80;;
52618;SDS011;38513;53.234;6.568;2024-02-15T14:15:51;24.05;;;17.48;;
52618;SDS011;38513;53.234;6.568;2024-02-15T14:22:34;25.38;;;17.80;;
52618;SDS011;38513;53.234;6.568;2024-02-15T14:29:22;20.73;;;16.70;;
52618;SDS011;38513;53.234;6.568;2024-02-15T14:43:15;20.25;;;16.95;;
52618;SDS011;38513;53.234;6.568;2024-02-15T14:57:07;20.27;;;16.02;;
52618;SDS011;38513;53.234;6.568;2024-02-15T15:00:29;21.00;;;16.00;;
52618;SDS011;38513;53.234;6.568;2024-02-15T15:03:45;25.00;;;18.05;;
52618;SDS011;38513;53.234;6.568;2024-02-15T18:01:11;24.10;;;14.90;;
52618;SDS011;38513;53.234;6.568;2024-02-15T18:03:40;21.75;;;12.85;;
52618;SDS011;38513;53.234;6.568;2024-02-15T18:06:23;23.52;;;13.02;;
52618;SDS011;38513;53.234;6.568;2024-02-15T18:08:52;23.10;;;13.77;;
52618;SDS011;38513;53.234;6.568;2024-02-15T18:11:20;21.58;;;12.77;;
52618;SDS011;38513;53.234;6.568;2024-02-15T18:13:49;17.25;;;11.63;;
52618;SDS011;38513;53.234;6.568;2024-02-15T18:16:16;19.88;;;12.52;;
52618;SDS011;38513;53.234;6.568;2024-02-15T18:18:42;24.42;;;14.23;;
52618;SDS011;38513;53.234;6.568;2024-02-15T18:21:18;19.92;;;12.35;;
52618;SDS011;38513;53.234;6.568;2024-02-15T18:23:50;18.92;;;12.50;;
52618;SDS011;38513;53.234;6.568;2024-02-15T18:26:25;21.25;;;12.27;;
52618;SDS011;38513;53.234;6.568;2024-02-15T18:28:53;20.48;;;12.27;;
52618;SDS011;38513;53.234;6.568;2024-02-15T18:31:20;19.02;;;11.55;;
52618;SDS011;38513;53.234;6.568;2024-02-15T18:33:53;19.15;;;12.57;;
52618;SDS011;38513;53.234;6.568;2024-02-15T18:36:32;22.65;;;11.88;;
52618;SDS011;38513;53.234;6.568;2024-02-15T18:39:08;19.48;;;11.68;;
52618;SDS011;38513;53.234;6.568;2024-02-15T18:41:46;20.67;;;11.30;;
52618;SDS011;38513;53.234;6.568;2024-02-15T18:44:15;20.63;;;12.18;;
52618;SDS011;38513;53.234;6.568;2024-02-15T18:50:04;20.58;;;11.82;;
52618;SDS011;38513;53.234;6.568;2024-02-15T18:52:39;21.23;;;11.95;;
52618;SDS011;38513;53.234;6.568;2024-02-15T18:55:17;18.92;;;12.02;;
52618;SDS011;38513;53.234;6.568;2024-02-15T18:57:46;21.00;;;12.27;;
52618;SDS011;38513;53.234;6.568;2024-02-15T19:00:28;20.80;;;12.15;;
52618;SDS011;38513;53.234;6.568;2024-02-15T19:06:07;20.70;;;11.70;;
52618;SDS011;38513;53.234;6.568;2024-02-15T19:08:56;19.90;;;11.48;;
52618;SDS011;38513;53.234;6.568;2024-02-15T19:11:28;21.13;;;11.70;;
52618;SDS011;38513;53.234;6.568;2024-02-15T19:13:55;19.87;;;11.80;;
52618;SDS011;38513;53.234;6.568;2024-02-15T19:16:27;21.98;;;12.07;;
52618;SDS011;38513;53.234;6.568;2024-02-15T19:18:54;21.45;;;12.40;;
52618;SDS011;38513;53.234;6.568;2024-02-15T19:21:25;19.48;;;11.38;;
52618;SDS011;38513;53.234;6.568;2024-02-15T19:23:58;21.45;;;11.10;;
52618;SDS011;38513;53.234;6.568;2024-02-15T19:26:28;20.50;;;10.90;;
52618;SDS011;38513;53.234;6.568;2024-02-15T19:29:11;20.23;;;11.20;;
52618;SDS011;38513;53.234;6.568;2024-02-15T19:31:43;19.42;;;11.10;;
52618;SDS011;38513;53.234;6.568;2024-02-15T19:34:13;17.80;;;10.52;;
52618;SDS011;38513;53.234;6.568;2024-02-15T19:36:43;20.10;;;11.00;;
52618;SDS011;38513;53.234;6.568;2024-02-15T19:39:19;22.58;;;10.98;;
52618;SDS011;38513;53.234;6.568;2024-02-15T19:41:51;19.05;;;11.38;;
52618;SDS011;38513;53.234;6.568;2024-02-15T19:44:25;19.80;;;11.15;;
52618;SDS011;38513;53.234;6.568;2024-02-15T19:47:00;21.77;;;12.13;;
52618;SDS011;38513;53.234;6.568;2024-02-15T19:49:33;17.25;;;10.40;;
52618;SDS011;38513;53.234;6.568;2024-02-15T19:52:07;17.87;;;11.07;;
52618;SDS011;38513;53.234;6.568;2024-02-15T19:54:38;21.23;;;11.25;;
52618;SDS011;38513;53.234;6.568;2024-02-15T19:57:16;19.83;;;10.73;;
52618;SDS011;38513;53.234;6.568;2024-02-15T20:00:07;18.73;;;11.75;;
52618;SDS011;38513;53.234;6.568;2024-02-15T20:02:38;18.93;;;11.03;;
52618;SDS011;38513;53.234;6.568;2024-02-15T20:05:18;19.60;;;11.57;;
52618;SDS011;38513;53.234;6.568;2024-02-15T20:07:56;18.98;;;10.80;;
52618;SDS011;38513;53.234;6.568;2024-02-15T20:10:37;20.55;;;11.23;;
52618;SDS011;38513;53.234;6.568;2024-02-15T20:13:24;17.42;;;10.98;;
52618;SDS011;38513;53.234;6.568;2024-02-15T20:16:07;20.45;;;10.32;;
52618;SDS011;38513;53.234;6.568;2024-02-15T20:18:45;17.52;;;9.88;;
52618;SDS011;38513;53.234;6.568;2024-02-15T20:23:57;19.60;;;10.45;;
52618;SDS011;38513;53.234;6.568;2024-02-15T20:29:40;18.05;;;9.90;;
52618;SDS011;38513;53.234;6.568;2024-02-15T20:32:38;19.65;;;10.27;;
52618;SDS011;38513;53.234;6.568;2024-02-15T20:35:13;17.50;;;9.25;;
52618;SDS011;38513;53.234;6.568;2024-02-15T20:37:47;19.25;;;9.98;;
52618;SDS011;38513;53.234;6.568;2024-02-15T20:40:27;17.23;;;9.33;;
52618;SDS011;38513;53.234;6.568;2024-02-15T20:43:05;18.25;;;9.48;;
52618;SDS011;38513;53.234;6.568;2024-02-15T20:45:41;13.70;;;7.55;;
52618;SDS011;38513;53.234;6.568;2024-02-15T20:48:19;15.48;;;8.27;;
52618;SDS011;38513;53.234;6.568;2024-02-15T20:51:02;15.63;;;8.10;;
52618;SDS011;38513;53.234;6.568;2024-02-15T20:53:46;14.80;;;7.60;;
52618;SDS011;38513;53.234;6.568;2024-02-15T20:56:29;15.70;;;7.60;;
52618;SDS011;38513;53.234;6.568;2024-02-15T20:59:05;14.80;;;7.20;;
52618;SDS011;38513;53.234;6.568;2024-02-15T21:01:37;15.60;;;7.33;;
52618;SDS011;38513;53.234;6.568;2024-02-15T21:04:18;14.30;;;7.20;;
52618;SDS011;38513;53.234;6.568;2024-02-15T21:06:59;13.02;;;6.90;;
52618;SDS011;38513;53.234;6.568;2024-02-15T21:09:38;12.52;;;6.78;;
52618;SDS011;38513;53.234;6.568;2024-02-15T21:12:14;14.35;;;6.38;;
52618;SDS011;38513;53.234;6.568;2024-02-15T21:15:02;14.30;;;5.70;;
52618;SDS011;38513;53.234;6.568;2024-02-15T21:17:47;11.68;;;5.30;;
52618;SDS011;38513;53.234;6.568;2024-02-15T21:20:25;12.90;;;5.72;;
52618;SDS011;38513;53.234;6.568;2024-02-15T21:23:13;12.35;;;5.60;;
52618;SDS011;38513;53.234;6.568;2024-02-15T21:25:48;12.50;;;5.65;;
52618;SDS011;38513;53.234;6.568;2024-02-15T21:28:38;14.80;;;8.37;;
52618;SDS011;38513;53.234;6.568;2024-02-15T21:31:08;14.13;;;6.53;;
52618;SDS011;38513;53.234;6.568;2024-02-15T21:34:01;13.35;;;5.55;;
52618;SDS011;38513;53.234;6.568;2024-02-15T21:39:41;15.23;;;5.63;;
52618;SDS011;38513;53.234;6.568;2024-02-15T21:42:12;13.00;;;6.03;;
52618;SDS011;38513;53.234;6.568;2024-02-15T21:47:45;11.82;;;5.50;;
52618;SDS011;38513;53.234;6.568;2024-02-15T21:50:26;11.70;;;5.22;;
52618;SDS011;38513;53.234;6.568;2024-02-15T21:53:22;13.40;;;5.78;;
52618;SDS011;38513;53.234;6.568;2024-02-15T21:55:58;10.70;;;5.55;;
52618;SDS011;38513;53.234;6.568;2024-02-15T21:58:52;12.63;;;5.45;;
52618;SDS011;38513;53.234;6.568;2024-02-15T22:01:30;12.32;;;5.30;;
52618;SDS011;38513;53.234;6.568;2024-02-15T22:04:07;12.18;;;5.50;;
52618;SDS011;38513;53.234;6.568;2024-02-15T22:06:46;14.30;;;6.07;;
52618;SDS011;38513;53.234;6.568;2024-02-15T22:12:31;10.80;;;5.63;;
52618;SDS011;38513;53.234;6.568;2024-02-15T22:15:11;12.57;;;5.28;;
